createdAt,value
2023-01-30T00:01:56.814Z,95.40
2023-01-30T00:04:24.637Z,96.90
2023-01-30T00:06:52.414Z,97.00
2023-01-30T00:09:21.588Z,98.00
2023-01-30T00:11:49.357Z,99.00
2023-01-30T00:14:17.275Z,99.20
2023-01-30T00:16:45.176Z,99.30
2023-01-30T00:19:13.036Z,98.70
2023-01-30T00:21:40.843Z,97.40
2023-01-30T00:24:09.270Z,96.20
2023-01-30T00:26:38.440Z,96.20
2023-01-30T00:29:06.415Z,97.70
2023-01-30T00:31:34.237Z,99.10
2023-01-30T00:34:02.019Z,98.50
2023-01-30T00:36:29.780Z,97.00
2023-01-30T00:38:58.687Z,96.20
2023-01-30T00:41:47.138Z,95.20
2023-01-30T00:44:33.803Z,95.10
2023-01-30T00:47:08.841Z,94.80
2023-01-30T00:49:37.477Z,94.40
2023-01-30T00:52:06.354Z,95.20
2023-01-30T00:54:34.266Z,96.20
2023-01-30T00:57:02.311Z,97.60
2023-01-30T00:59:31.493Z,98.30
2023-01-30T01:01:59.356Z,95.70
2023-01-30T01:04:27.501Z,92.90
2023-01-30T01:06:55.259Z,90.80
2023-01-30T01:09:23.027Z,90.10
2023-01-30T01:11:50.818Z,89.50
2023-01-30T01:14:18.757Z,90.50
2023-01-30T01:16:48.056Z,91.70
2023-01-30T01:19:15.873Z,92.40
2023-01-30T01:21:43.674Z,92.20
2023-01-30T01:24:14.140Z,92.30
2023-01-30T01:26:42.710Z,92.60
2023-01-30T01:29:13.588Z,92.90
2023-01-30T01:31:41.558Z,93.40
2023-01-30T01:34:10.758Z,93.70
2023-01-30T01:36:54.910Z,94.50
2023-01-30T01:39:23.417Z,94.70
2023-01-30T01:41:50.415Z,94.10
2023-01-30T01:44:18.308Z,94.00
2023-01-30T01:46:50.674Z,94.00
2023-01-30T01:49:24.761Z,94.60
2023-01-30T01:51:56.031Z,94.10
2023-01-30T01:54:30.220Z,94.40
2023-01-30T01:56:58.054Z,94.30
2023-01-30T01:59:29.415Z,94.00
2023-01-30T02:02:01.580Z,93.90
2023-01-30T02:04:50.524Z,93.90
2023-01-30T02:07:22.336Z,94.00
2023-01-30T02:09:51.419Z,94.20
2023-01-30T02:12:19.211Z,94.20
2023-01-30T02:14:49.117Z,94.60
2023-01-30T02:17:16.924Z,94.10
2023-01-30T02:19:51.755Z,93.10
2023-01-30T02:22:42.254Z,93.60
2023-01-30T02:25:26.163Z,94.60
2023-01-30T02:28:18.485Z,95.60
2023-01-30T02:31:25.905Z,95.40
2023-01-30T02:34:05.206Z,95.20
2023-01-30T02:36:47.556Z,93.90
2023-01-30T02:39:26.228Z,93.00
2023-01-30T02:42:03.751Z,93.00
2023-01-30T02:44:38.649Z,92.70
2023-01-30T02:47:14.634Z,92.40
2023-01-30T02:49:46.942Z,92.70
2023-01-30T02:52:18.367Z,92.10
2023-01-30T02:54:46.266Z,91.00
2023-01-30T02:57:21.643Z,90.20
2023-01-30T02:59:52.416Z,89.60
2023-01-30T03:02:37.330Z,89.30
2023-01-30T03:05:30.233Z,89.40
2023-01-30T03:08:10.055Z,89.40
2023-01-30T03:10:43.777Z,89.90
2023-01-30T03:13:17.456Z,88.90
2023-01-30T03:15:50.744Z,88.80
2023-01-30T03:18:21.597Z,88.00
2023-01-30T03:20:49.932Z,87.90
2023-01-30T03:23:17.776Z,87.80
2023-01-30T03:25:47.160Z,87.90
2023-01-30T03:28:19.347Z,88.00
2023-01-30T03:30:47.321Z,87.60
2023-01-30T03:33:15.214Z,87.60
2023-01-30T03:35:44.655Z,87.80
2023-01-30T03:38:13.664Z,87.60
2023-01-30T03:40:41.462Z,87.60
2023-01-30T03:43:09.238Z,88.00
2023-01-30T03:45:37.392Z,87.70
2023-01-30T03:48:05.444Z,87.60
2023-01-30T03:50:33.208Z,87.60
2023-01-30T03:53:02.406Z,87.80
2023-01-30T03:55:30.200Z,88.20
2023-01-30T03:57:58.160Z,88.50
2023-01-30T04:00:25.989Z,88.30
2023-01-30T04:02:54.846Z,88.30
2023-01-30T04:05:22.665Z,89.30
2023-01-30T04:07:50.552Z,87.70
2023-01-30T04:10:20.044Z,87.20
2023-01-30T04:12:48.039Z,86.90
2023-01-30T04:15:16.249Z,85.90
2023-01-30T04:17:44.511Z,85.10
2023-01-30T04:20:12.780Z,84.50
2023-01-30T04:22:40.549Z,84.00
2023-01-30T04:25:09.173Z,84.20
2023-01-30T04:27:38.276Z,84.40
2023-01-30T04:30:07.281Z,83.90
2023-01-30T04:32:35.041Z,84.00
2023-01-30T04:35:02.842Z,83.70
2023-01-30T04:37:30.686Z,83.90
2023-01-30T04:39:58.449Z,84.50
2023-01-30T04:42:26.210Z,83.90
2023-01-30T04:44:55.315Z,83.70
2023-01-30T04:47:23.156Z,83.60
2023-01-30T04:49:50.913Z,84.60
2023-01-30T04:52:18.707Z,84.70
2023-01-30T04:54:46.516Z,84.50
2023-01-30T04:57:14.464Z,84.60
2023-01-30T04:59:42.330Z,84.70
2023-01-30T05:02:11.522Z,84.80
2023-01-30T05:04:39.311Z,84.70
2023-01-30T05:07:07.198Z,85.30
2023-01-30T05:09:34.994Z,85.80
2023-01-30T05:12:02.794Z,86.00
2023-01-30T05:14:30.577Z,86.00
2023-01-30T05:16:58.383Z,86.50
2023-01-30T05:19:27.576Z,86.20
2023-01-30T05:21:55.312Z,86.50
2023-01-30T05:24:23.258Z,85.90
2023-01-30T05:26:51.018Z,86.20
2023-01-30T05:29:18.829Z,86.50
2023-01-30T05:31:46.568Z,86.20
2023-01-30T05:34:14.403Z,86.10
2023-01-30T05:36:43.526Z,85.70
2023-01-30T05:39:11.311Z,85.90
2023-01-30T05:41:39.107Z,85.90
2023-01-30T05:44:07.097Z,85.70
2023-01-30T05:46:34.914Z,85.00
2023-01-30T05:49:04.104Z,85.10
2023-01-30T05:51:32.181Z,85.20
2023-01-30T05:54:01.295Z,85.60
2023-01-30T05:56:30.467Z,85.60
2023-01-30T05:58:58.266Z,86.00
2023-01-30T06:01:26.649Z,85.60
2023-01-30T06:03:54.976Z,84.50
2023-01-30T06:06:23.718Z,83.30
2023-01-30T06:08:54.782Z,82.50
2023-01-30T06:11:24.506Z,82.20
2023-01-30T06:13:52.307Z,82.20
2023-01-30T06:16:20.356Z,81.80
2023-01-30T06:18:48.332Z,81.70
2023-01-30T06:21:16.957Z,82.00
2023-01-30T06:23:46.235Z,82.00
2023-01-30T06:26:14.121Z,82.30
2023-01-30T06:28:44.219Z,82.50
2023-01-30T06:31:12.085Z,82.50
2023-01-30T06:33:40.033Z,81.10
2023-01-30T06:36:08.623Z,79.50
2023-01-30T06:38:36.433Z,78.60
2023-01-30T06:41:04.233Z,77.70
2023-01-30T06:43:32.004Z,77.50
2023-01-30T06:46:01.376Z,76.40
2023-01-30T06:48:29.203Z,74.60
2023-01-30T06:50:57.025Z,73.90
2023-01-30T06:53:30.263Z,73.70
2023-01-30T06:55:58.503Z,72.80
2023-01-30T06:58:26.739Z,72.30
2023-01-30T07:00:54.620Z,72.40
2023-01-30T07:03:24.629Z,72.50
2023-01-30T07:05:52.518Z,72.20
2023-01-30T07:08:22.514Z,72.90
2023-01-30T07:10:51.072Z,72.20
2023-01-30T07:13:18.858Z,72.60
2023-01-30T07:15:46.849Z,73.00
2023-01-30T07:18:14.860Z,72.70
2023-01-30T07:20:48.086Z,73.40
2023-01-30T07:23:15.965Z,73.20
2023-01-30T07:25:43.699Z,73.80
2023-01-30T07:28:11.713Z,73.70
2023-01-30T07:30:39.757Z,73.40
2023-01-30T07:33:07.655Z,73.00
2023-01-30T07:35:37.423Z,72.60
2023-01-30T07:38:07.093Z,72.70
2023-01-30T07:40:34.914Z,72.90
2023-01-30T07:43:04.433Z,73.10
2023-01-30T07:45:36.654Z,72.20
2023-01-30T07:48:04.655Z,72.70
2023-01-30T07:50:32.485Z,73.50
2023-01-30T07:53:00.329Z,73.20
2023-01-30T07:55:29.641Z,73.60
2023-01-30T07:57:57.441Z,73.70
2023-01-30T08:00:25.725Z,74.60
2023-01-30T08:02:53.670Z,74.80
2023-01-30T08:05:21.497Z,74.60
2023-01-30T08:07:49.245Z,74.90
2023-01-30T08:10:18.073Z,74.40
2023-01-30T08:12:47.442Z,74.40
2023-01-30T08:15:15.248Z,74.40
2023-01-30T08:17:43.098Z,74.60
2023-01-30T08:20:12.210Z,73.70
2023-01-30T08:22:39.992Z,73.40
2023-01-30T08:25:08.862Z,73.50
2023-01-30T08:27:36.649Z,73.70
2023-01-30T08:30:06.691Z,73.90
2023-01-30T08:32:34.627Z,73.00
2023-01-30T08:35:02.412Z,73.70
2023-01-30T08:37:30.214Z,73.70
2023-01-30T08:39:57.999Z,73.80
2023-01-30T08:42:25.770Z,74.10
2023-01-30T08:44:53.594Z,74.30
2023-01-30T08:47:22.690Z,74.20
2023-01-30T08:49:51.408Z,74.50
2023-01-30T08:52:19.277Z,74.60
2023-01-30T08:54:47.566Z,74.20
2023-01-30T08:57:15.929Z,73.40
2023-01-30T08:59:43.713Z,73.00
2023-01-30T09:02:11.924Z,73.00
2023-01-30T09:04:41.640Z,72.50
2023-01-30T09:07:09.786Z,72.80
2023-01-30T09:09:37.891Z,72.40
2023-01-30T09:12:06.233Z,72.40
2023-01-30T09:14:34.023Z,72.90
2023-01-30T09:17:01.849Z,73.20
2023-01-30T09:19:29.829Z,73.60
2023-01-30T09:21:59.178Z,73.80
2023-01-30T09:24:27.784Z,74.70
2023-01-30T09:26:57.557Z,74.30
2023-01-30T09:29:25.408Z,74.20
2023-01-30T09:31:53.792Z,74.00
2023-01-30T09:34:21.708Z,73.90
2023-01-30T09:36:49.533Z,74.30
2023-01-30T09:39:18.858Z,74.30
2023-01-30T09:42:09.754Z,74.60
2023-01-30T09:45:01.406Z,73.20
2023-01-30T09:47:39.864Z,73.10
2023-01-30T09:50:24.814Z,73.60
2023-01-30T09:52:58.844Z,74.10
2023-01-30T09:55:30.295Z,74.00
2023-01-30T09:58:00.497Z,74.10
2023-01-30T10:00:35.371Z,74.40
2023-01-30T10:03:11.373Z,74.30
2023-01-30T10:05:44.623Z,74.60
2023-01-30T10:08:41.368Z,74.70
2023-01-30T10:11:22.434Z,74.70
2023-01-30T10:14:04.274Z,74.50
2023-01-30T10:16:39.072Z,73.30
2023-01-30T10:19:35.275Z,73.10
2023-01-30T10:22:14.438Z,73.60
2023-01-30T10:24:57.340Z,72.90
2023-01-30T10:27:28.871Z,72.60
2023-01-30T10:30:01.658Z,72.70
2023-01-30T10:32:33.867Z,72.80
2023-01-30T10:35:07.347Z,73.60
2023-01-30T10:37:44.264Z,74.00
2023-01-30T10:40:19.168Z,73.80
2023-01-30T10:42:58.174Z,73.80
2023-01-30T10:45:36.358Z,74.90
2023-01-30T10:48:43.164Z,75.30
2023-01-30T10:51:23.966Z,75.60
2023-01-30T10:53:56.345Z,76.20
2023-01-30T10:56:32.646Z,76.30
2023-01-30T10:59:12.240Z,75.80
2023-01-30T11:01:46.198Z,75.00
2023-01-30T11:04:25.044Z,75.00
2023-01-30T11:06:54.659Z,74.40
2023-01-30T11:09:24.659Z,74.30
2023-01-30T11:11:54.437Z,73.80
2023-01-30T11:14:23.572Z,73.40
2023-01-30T11:16:54.051Z,73.20
2023-01-30T11:19:26.069Z,73.10
2023-01-30T11:21:56.493Z,72.90
2023-01-30T11:24:29.548Z,72.70
2023-01-30T11:27:09.987Z,72.90
2023-01-30T11:29:40.274Z,71.60
2023-01-30T11:32:13.623Z,72.30
2023-01-30T11:34:44.202Z,72.20
2023-01-30T11:37:23.823Z,73.00
2023-01-30T11:39:53.964Z,73.40
2023-01-30T11:42:26.544Z,73.60
2023-01-30T11:45:16.317Z,73.10
2023-01-30T11:47:57.749Z,73.40
2023-01-30T11:50:36.393Z,73.50
2023-01-30T11:53:21.538Z,73.40
2023-01-30T11:56:02.241Z,74.10
2023-01-30T11:58:33.513Z,73.90
2023-01-30T12:01:04.180Z,73.70
2023-01-30T12:03:34.167Z,74.00
2023-01-30T12:06:02.043Z,74.10
2023-01-30T12:08:42.692Z,74.30
2023-01-30T12:11:32.028Z,75.00
2023-01-30T12:14:31.871Z,74.70
2023-01-30T12:17:06.394Z,75.60
2023-01-30T12:19:47.483Z,76.10
2023-01-30T12:22:25.319Z,76.20
2023-01-30T12:24:59.604Z,76.80
2023-01-30T12:27:42.549Z,77.00
2023-01-30T12:30:31.261Z,76.90
2023-01-30T12:35:53.102Z,77.90
2023-01-30T12:38:29.950Z,77.80
2023-01-30T12:41:08.825Z,78.00
2023-01-30T12:43:53.937Z,78.20
2023-01-30T12:46:42.290Z,78.10
2023-01-30T12:49:47.560Z,78.50
2023-01-30T12:52:33.317Z,79.40
2023-01-30T12:55:10.785Z,78.90
2023-01-30T12:57:45.248Z,78.90
2023-01-30T13:00:32.199Z,78.50
2023-01-30T13:03:16.731Z,78.50
2023-01-30T13:05:53.910Z,79.00
2023-01-30T13:08:41.736Z,79.80
2023-01-30T13:11:28.986Z,80.50
2023-01-30T13:14:04.315Z,81.40
2023-01-30T13:16:39.305Z,81.90
2023-01-30T13:19:12.676Z,81.70
2023-01-30T13:21:47.816Z,81.90
2023-01-30T13:24:23.149Z,82.90
2023-01-30T13:26:53.779Z,82.90
2023-01-30T13:29:29.984Z,83.30
2023-01-30T13:32:02.728Z,83.90
2023-01-30T13:34:34.607Z,83.60
2023-01-30T13:37:08.268Z,83.10
2023-01-30T13:39:42.607Z,83.10
2023-01-30T13:42:21.701Z,83.40
2023-01-30T13:44:51.294Z,83.20
2023-01-30T13:47:33.415Z,83.50
2023-01-30T13:50:21.465Z,83.00
2023-01-30T13:52:57.471Z,83.30
2023-01-30T13:55:33.131Z,84.10
2023-01-30T13:58:06.831Z,84.20
2023-01-30T14:00:36.100Z,84.00
2023-01-30T14:03:24.203Z,84.20
2023-01-30T14:06:12.815Z,85.20
2023-01-30T14:08:50.736Z,85.20
2023-01-30T14:11:43.945Z,85.40
2023-01-30T14:14:33.947Z,84.90
2023-01-30T14:17:17.174Z,85.10
2023-01-30T14:19:49.868Z,85.40
2023-01-30T14:22:24.466Z,85.90
2023-01-30T14:25:38.217Z,85.90
2023-01-30T14:28:49.297Z,87.20
2023-01-30T14:31:56.666Z,87.20
2023-01-30T14:34:42.321Z,88.10
2023-01-30T14:37:54.782Z,88.50
2023-01-30T14:40:51.268Z,89.10
2023-01-30T14:43:49.266Z,89.40
2023-01-30T14:46:54.272Z,89.30
2023-01-30T14:49:30.804Z,89.80
2023-01-30T14:52:00.495Z,90.00
2023-01-30T14:54:41.918Z,89.80
2023-01-30T14:57:27.562Z,89.70
2023-01-30T15:00:17.177Z,89.90
2023-01-30T15:02:52.020Z,89.60
2023-01-30T15:05:26.219Z,89.80
2023-01-30T15:08:00.342Z,90.10
2023-01-30T15:10:54.744Z,90.40
2023-01-30T15:13:55.487Z,89.70
2023-01-30T15:16:41.747Z,89.40
2023-01-30T15:19:22.791Z,89.60
2023-01-30T15:22:03.768Z,89.80
2023-01-30T15:25:16.770Z,89.20
2023-01-30T15:27:59.979Z,89.70
2023-01-30T15:30:43.038Z,90.00
2023-01-30T15:33:29.357Z,90.00
2023-01-30T15:35:58.266Z,89.90
2023-01-30T15:38:29.635Z,89.20
2023-01-30T15:41:00.541Z,88.60
2023-01-30T15:44:02.730Z,88.60
2023-01-30T15:46:39.849Z,89.10
2023-01-30T15:49:34.519Z,88.90
2023-01-30T15:52:03.716Z,87.80
2023-01-30T15:54:31.783Z,87.60
2023-01-30T15:57:00.941Z,88.10
2023-01-30T15:59:34.826Z,88.20
2023-01-30T16:02:05.777Z,88.20
2023-01-30T16:04:33.635Z,88.70
2023-01-30T16:07:14.527Z,89.60
2023-01-30T16:09:47.289Z,90.50
2023-01-30T16:12:27.372Z,91.60
2023-01-30T16:17:55.227Z,91.70
2023-01-30T16:20:23.108Z,92.50
2023-01-30T16:22:51.168Z,93.10
2023-01-30T16:25:23.519Z,94.10
2023-01-30T16:27:53.526Z,95.60
2023-01-30T16:30:25.496Z,96.20
2023-01-30T16:32:55.390Z,96.60
2023-01-30T16:35:31.828Z,96.40
2023-01-30T16:38:01.669Z,95.10
2023-01-30T16:40:33.121Z,94.90
2023-01-30T16:43:02.572Z,94.90
2023-01-30T16:46:31.006Z,94.70
2023-01-30T16:49:04.874Z,94.30
2023-01-30T16:51:33.172Z,94.20
2023-01-30T16:54:04.247Z,94.30
2023-01-30T16:56:35.720Z,94.40
2023-01-30T16:59:04.063Z,93.80
2023-01-30T17:01:39.222Z,93.40
2023-01-30T17:04:18.706Z,93.40
2023-01-30T17:06:53.923Z,93.40
2023-01-30T17:09:43.571Z,92.90
2023-01-30T17:12:48.263Z,92.40
2023-01-30T17:15:33.645Z,92.20
2023-01-30T17:18:03.455Z,91.90
2023-01-30T17:20:40.684Z,92.10
2023-01-30T17:23:10.684Z,91.70
2023-01-30T17:25:42.203Z,92.00
2023-01-30T17:28:11.262Z,91.60
2023-01-30T17:30:40.825Z,91.80
2023-01-30T17:33:11.843Z,91.90
2023-01-30T17:35:40.461Z,92.00
2023-01-30T17:38:08.280Z,92.20
2023-01-30T17:40:38.761Z,92.30
2023-01-30T17:43:06.900Z,92.40
2023-01-30T17:45:36.160Z,92.20
2023-01-30T17:48:03.978Z,92.20
2023-01-30T17:50:33.104Z,92.20
2023-01-30T17:53:00.894Z,92.50
2023-01-30T17:55:28.755Z,92.60
2023-01-30T17:57:56.623Z,92.40
2023-01-30T18:00:25.034Z,92.10
2023-01-30T18:02:53.090Z,92.30
2023-01-30T18:05:23.315Z,92.60
2023-01-30T18:07:52.540Z,92.30
2023-01-30T18:10:21.516Z,92.20
2023-01-30T18:13:26.555Z,92.40
2023-01-30T18:15:59.683Z,92.50
2023-01-30T18:18:27.852Z,92.60
2023-01-30T18:20:55.631Z,92.40
2023-01-30T18:23:24.994Z,92.50
2023-01-30T18:25:52.852Z,92.30
2023-01-30T18:28:20.703Z,92.30
2023-01-30T18:30:48.554Z,92.20
2023-01-30T18:33:16.488Z,92.20
2023-01-30T18:35:44.226Z,92.00
2023-01-30T18:38:12.094Z,91.80
2023-01-30T18:40:41.238Z,91.80
2023-01-30T18:43:09.016Z,91.70
2023-01-30T18:45:36.787Z,91.30
2023-01-30T18:48:04.849Z,90.90
2023-01-30T18:50:32.618Z,90.70
2023-01-30T18:53:00.400Z,90.80
2023-01-30T18:55:28.186Z,90.70
2023-01-30T18:57:58.882Z,90.80
2023-01-30T19:00:27.215Z,91.00
2023-01-30T19:02:55.254Z,90.80
2023-01-30T19:05:23.078Z,91.00
2023-01-30T19:07:50.882Z,91.20
2023-01-30T19:10:19.323Z,91.50
2023-01-30T19:13:04.774Z,91.80
2023-01-30T19:15:36.455Z,92.10
2023-01-30T19:18:04.310Z,92.50
2023-01-30T19:20:32.105Z,92.40
2023-01-30T19:22:59.907Z,92.80
2023-01-30T19:25:27.903Z,92.80
2023-01-30T19:27:56.729Z,92.90
2023-01-30T19:30:24.592Z,92.90
2023-01-30T19:32:58.653Z,93.20
2023-01-30T19:35:26.516Z,93.50
2023-01-30T19:37:57.425Z,93.60
2023-01-30T19:40:25.152Z,93.70
2023-01-30T19:42:56.827Z,93.80
2023-01-30T19:45:27.529Z,93.90
2023-01-30T19:47:56.600Z,94.00
2023-01-30T19:50:24.333Z,93.90
2023-01-30T19:52:53.947Z,94.10
2023-01-30T19:55:21.741Z,93.90
2023-01-30T19:57:49.486Z,94.00
2023-01-30T20:00:18.229Z,94.00
2023-01-30T20:02:46.385Z,94.20
2023-01-30T20:05:16.558Z,94.40
2023-01-30T20:07:44.854Z,94.60
2023-01-30T20:10:12.633Z,94.60
2023-01-30T20:12:40.512Z,94.80
2023-01-30T20:15:10.050Z,95.40
2023-01-30T20:17:37.806Z,95.20
2023-01-30T20:20:07.612Z,95.40
2023-01-30T20:22:36.783Z,95.10
2023-01-30T20:25:05.239Z,95.10
2023-01-30T20:27:33.813Z,95.20
2023-01-30T20:30:01.723Z,95.00
2023-01-30T20:32:30.835Z,94.80
2023-01-30T20:34:58.612Z,94.90
2023-01-30T20:37:27.824Z,94.70
2023-01-30T20:39:57.332Z,94.60
2023-01-30T20:42:25.151Z,94.40
2023-01-30T20:44:52.900Z,93.90
2023-01-30T20:47:20.699Z,93.60
2023-01-30T20:49:48.495Z,93.40
2023-01-30T20:52:16.343Z,93.00
2023-01-30T20:54:44.056Z,92.90
2023-01-30T20:57:13.432Z,93.20
2023-01-30T20:59:42.123Z,93.30
2023-01-30T21:02:10.316Z,93.50
2023-01-30T21:04:38.716Z,93.30
2023-01-30T21:07:06.541Z,93.10
2023-01-30T21:09:34.324Z,93.10
2023-01-30T21:12:02.122Z,93.50
2023-01-30T21:14:31.259Z,93.70
2023-01-30T21:16:59.071Z,93.70
2023-01-30T21:19:26.866Z,93.50
2023-01-30T21:21:56.557Z,93.50
2023-01-30T21:24:27.053Z,93.60
2023-01-30T21:26:56.330Z,93.30
2023-01-30T21:29:26.375Z,93.30
2023-01-30T21:31:56.508Z,93.30
2023-01-30T21:34:24.617Z,93.40
2023-01-30T21:37:06.489Z,93.40
2023-01-30T21:39:51.838Z,93.60
2023-01-30T21:42:37.813Z,93.50
2023-01-30T21:45:07.452Z,93.60
2023-01-30T21:47:37.028Z,93.60
2023-01-30T21:50:05.295Z,93.70
2023-01-30T21:52:33.552Z,93.80
2023-01-30T21:55:01.349Z,94.10
2023-01-30T21:57:29.221Z,94.20
2023-01-30T21:59:57.027Z,94.20
2023-01-30T22:02:24.768Z,94.30
2023-01-30T22:04:53.870Z,94.40
2023-01-30T22:07:21.666Z,94.30
2023-01-30T22:09:49.739Z,93.60
2023-01-30T22:12:17.524Z,93.40
2023-01-30T22:14:45.906Z,93.60
2023-01-30T22:17:13.682Z,93.70
2023-01-30T22:19:42.502Z,94.10
2023-01-30T22:22:11.585Z,94.40
2023-01-30T22:24:39.687Z,94.60
2023-01-30T22:27:07.455Z,94.80
2023-01-30T22:29:35.263Z,95.00
2023-01-30T22:32:03.129Z,95.10
2023-01-30T22:34:31.011Z,95.30
2023-01-30T22:36:58.864Z,95.30
2023-01-30T22:39:27.941Z,95.00
2023-01-30T22:41:55.697Z,94.60
2023-01-30T22:44:23.666Z,94.50
2023-01-30T22:46:52.743Z,94.30
2023-01-30T22:49:20.527Z,94.20
2023-01-30T22:51:49.046Z,94.20
2023-01-30T22:54:17.281Z,93.90
2023-01-30T22:56:48.827Z,93.80
2023-01-30T22:59:16.773Z,93.80
2023-01-30T23:01:46.296Z,93.50
2023-01-30T23:04:15.607Z,93.70
2023-01-30T23:06:44.038Z,93.50
2023-01-30T23:09:14.686Z,93.30
2023-01-30T23:11:45.105Z,93.60
2023-01-30T23:14:16.459Z,93.60
2023-01-30T23:16:46.076Z,93.60
2023-01-30T23:19:13.704Z,93.60
2023-01-30T23:21:44.004Z,93.60
2023-01-30T23:24:14.151Z,93.50
2023-01-30T23:26:43.398Z,93.10
2023-01-30T23:29:13.211Z,92.70
2023-01-30T23:31:44.325Z,92.70
2023-01-30T23:34:14.518Z,92.80
2023-01-30T23:36:42.321Z,93.00
2023-01-30T23:39:12.015Z,92.60
2023-01-30T23:41:39.990Z,92.60
2023-01-30T23:44:07.946Z,92.30
2023-01-30T23:46:37.734Z,92.30
2023-01-30T23:49:08.388Z,92.40
2023-01-30T23:51:38.785Z,92.50
2023-01-30T23:54:07.444Z,92.80
2023-01-30T23:56:37.638Z,92.70
2023-01-30T23:59:06.158Z,92.90
